Time;durP1;ratioP1;P1;durP2;ratioP2;P2;SDS_P1;SDS_P2;PMS_P1;PMS_P2;Temp;Humidity;BMP_temperature;BMP_pressure;BME280_temperature;BME280_humidity;BME280_pressure;Samples;Min_cycle;Max_cycle;Signal;HPM_P1;HPM_P2
2023/06/30 00:02:17;;;;;;;5.90;2.27;;;;;;;;;;4971726;28;20234;-75
2023/06/30 00:04:47;;;;;;;7.40;2.53;;;;;;;;;;4972438;28;20305;-75
2023/06/30 00:07:15;;;;;;;7.87;2.20;;;;;;;;;;4972564;28;20609;-75
2023/06/30 00:09:44;;;;;;;6.90;2.30;;;;;;;;;;4972333;28;20221;-75
2023/06/30 00:12:11;;;;;;;5.27;2.30;;;;;;;;;;4972392;28;20238;-75
2023/06/30 00:14:39;;;;;;;7.77;2.33;;;;;;;;;;4953880;28;20290;-75
2023/06/30 00:17:06;;;;;;;8.87;2.30;;;;;;;;;;4972309;28;20380;-76
2023/06/30 00:19:35;;;;;;;13.30;2.50;;;;;;;;;;4972296;28;20234;-76
2023/06/30 00:22:02;;;;;;;5.70;1.90;;;;;;;;;;4972715;28;20347;-75
2023/06/30 00:24:29;;;;;;;7.67;2.30;;;;;;;;;;4972096;28;20637;-75
2023/06/30 00:26:57;;;;;;;6.97;2.43;;;;;;;;;;4972239;28;20202;-77
2023/06/30 00:29:25;;;;;;;6.77;2.13;;;;;;;;;;4972489;28;20222;-75
2023/06/30 00:31:52;;;;;;;6.87;2.10;;;;;;;;;;4971851;28;20290;-75
2023/06/30 00:34:19;;;;;;;6.07;2.37;;;;;;;;;;4972215;28;20293;-73
2023/06/30 00:36:46;;;;;;;7.43;2.20;;;;;;;;;;4972297;28;20317;-74
2023/06/30 00:39:13;;;;;;;9.60;2.13;;;;;;;;;;4971883;28;20297;-77
2023/06/30 00:41:40;;;;;;;9.37;2.27;;;;;;;;;;4971793;28;20224;-78
2023/06/30 00:44:09;;;;;;;5.93;1.90;;;;;;;;;;4972419;28;20234;-76
2023/06/30 00:46:36;;;;;;;8.37;2.10;;;;;;;;;;4971632;28;20238;-76
2023/06/30 00:49:03;;;;;;;5.03;2.20;;;;;;;;;;4971981;28;20293;-76
2023/06/30 00:51:31;;;;;;;10.30;2.40;;;;;;;;;;4971986;28;20670;-76
2023/06/30 00:53:58;;;;;;;8.30;2.00;;;;;;;;;;4971899;28;20230;-77
2023/06/30 00:56:25;;;;;;;7.47;2.13;;;;;;;;;;4972696;28;20233;-76
2023/06/30 00:58:52;;;;;;;8.67;2.40;;;;;;;;;;4975444;28;20266;-76
2023/06/30 01:01:23;;;;;;;8.93;2.23;;;;;;;;;;4974947;28;20217;-77
2023/06/30 01:03:53;;;;;;;8.50;2.20;;;;;;;;;;4975051;28;20673;-76
2023/06/30 01:06:23;;;;;;;9.03;2.20;;;;;;;;;;4975533;28;20253;-76
2023/06/30 01:08:54;;;;;;;8.80;2.40;;;;;;;;;;4975277;28;20265;-76
2023/06/30 01:11:24;;;;;;;8.20;2.20;;;;;;;;;;4975136;28;20202;-77
2023/06/30 01:13:52;;;;;;;4.77;2.20;;;;;;;;;;4975195;28;20194;-76
2023/06/30 01:16:19;;;;;;;8.40;2.33;;;;;;;;;;4975136;28;20635;-76
2023/06/30 01:18:52;;;;;;;5.93;2.20;;;;;;;;;;4974907;28;20265;-77
2023/06/30 01:21:21;;;;;;;6.50;2.23;;;;;;;;;;4974727;28;20205;-76
2023/06/30 01:23:51;;;;;;;5.97;2.63;;;;;;;;;;4975396;28;20199;-77
2023/06/30 01:26:19;;;;;;;6.30;2.20;;;;;;;;;;4975191;28;20202;-77
2023/06/30 01:28:46;;;;;;;9.60;2.40;;;;;;;;;;4974293;28;20199;-76
2023/06/30 01:31:14;;;;;;;5.97;1.87;;;;;;;;;;4974809;28;20208;-76
2023/06/30 01:33:41;;;;;;;8.17;2.30;;;;;;;;;;4974743;28;20293;-76
2023/06/30 01:36:10;;;;;;;8.07;2.10;;;;;;;;;;4974777;28;20206;-76
2023/06/30 01:38:37;;;;;;;8.17;2.40;;;;;;;;;;4974472;28;20280;-76
2023/06/30 01:41:06;;;;;;;6.33;2.17;;;;;;;;;;4974780;28;20202;-76
2023/06/30 01:43:34;;;;;;;7.03;2.17;;;;;;;;;;4974168;28;20291;-76
2023/06/30 01:46:03;;;;;;;6.73;2.17;;;;;;;;;;4974674;28;20205;-77
2023/06/30 01:48:30;;;;;;;4.73;1.77;;;;;;;;;;4974539;28;20209;-76
2023/06/30 01:50:57;;;;;;;6.50;2.07;;;;;;;;;;4974944;28;20203;-77
2023/06/30 01:53:26;;;;;;;8.67;2.50;;;;;;;;;;4974594;28;20297;-76
2023/06/30 01:55:55;;;;;;;6.50;2.50;;;;;;;;;;4966815;28;20296;-75
2023/06/30 01:58:22;;;;;;;6.60;2.20;;;;;;;;;;4956378;28;20235;-76
2023/06/30 02:00:50;;;;;;;7.67;2.70;;;;;;;;;;4955085;28;20206;-77
2023/06/30 02:03:17;;;;;;;6.27;2.30;;;;;;;;;;4954850;28;20322;-76
2023/06/30 02:05:44;;;;;;;7.47;2.40;;;;;;;;;;4954638;28;20747;-77
2023/06/30 02:08:11;;;;;;;6.93;2.33;;;;;;;;;;4953782;28;20695;-77
2023/06/30 02:10:40;;;;;;;8.87;2.30;;;;;;;;;;4954725;28;20250;-76
2023/06/30 02:13:07;;;;;;;6.93;2.30;;;;;;;;;;4954919;28;20635;-75
2023/06/30 02:15:34;;;;;;;3.97;1.90;;;;;;;;;;4962986;28;20276;-76
2023/06/30 02:18:03;;;;;;;10.87;2.50;;;;;;;;;;4974021;28;20234;-76
2023/06/30 02:20:30;;;;;;;6.53;2.00;;;;;;;;;;4974275;28;20198;-77
2023/06/30 02:22:57;;;;;;;7.03;2.07;;;;;;;;;;4974141;28;20237;-76
2023/06/30 02:25:24;;;;;;;7.77;2.23;;;;;;;;;;4973654;28;20202;-76
2023/06/30 02:27:53;;;;;;;10.10;2.03;;;;;;;;;;4973519;28;20739;-77
2023/06/30 02:30:21;;;;;;;8.30;2.47;;;;;;;;;;4973998;28;20266;-77
2023/06/30 02:32:48;;;;;;;5.10;2.07;;;;;;;;;;4974111;28;20293;-76
2023/06/30 02:35:15;;;;;;;6.87;2.10;;;;;;;;;;4973862;28;20258;-75
2023/06/30 02:37:42;;;;;;;8.93;2.47;;;;;;;;;;4973546;28;20230;-76
2023/06/30 02:40:10;;;;;;;7.00;2.27;;;;;;;;;;4974085;28;20285;-76
2023/06/30 02:42:37;;;;;;;6.77;2.40;;;;;;;;;;4973164;28;20293;-76
2023/06/30 02:45:06;;;;;;;5.07;1.80;;;;;;;;;;4973525;28;20205;-77
2023/06/30 02:47:33;;;;;;;7.77;2.40;;;;;;;;;;4973403;28;20232;-76
2023/06/30 02:50:00;;;;;;;7.57;2.57;;;;;;;;;;4973324;28;20638;-76
2023/06/30 02:52:28;;;;;;;6.70;2.17;;;;;;;;;;4973514;28;20297;-76
2023/06/30 02:54:55;;;;;;;8.43;2.33;;;;;;;;;;4973558;28;20297;-76
2023/06/30 02:57:22;;;;;;;8.23;2.50;;;;;;;;;;4972650;28;20289;-76
2023/06/30 02:59:49;;;;;;;9.33;2.60;;;;;;;;;;4973062;28;20194;-75
2023/06/30 03:02:18;;;;;;;5.93;2.43;;;;;;;;;;4972581;28;20325;-76
2023/06/30 03:04:45;;;;;;;7.60;2.17;;;;;;;;;;4972767;28;20649;-76
2023/06/30 03:07:12;;;;;;;7.00;2.40;;;;;;;;;;4973538;28;20308;-76
2023/06/30 03:09:39;;;;;;;7.40;2.50;;;;;;;;;;4972772;28;20230;-76
2023/06/30 03:12:07;;;;;;;7.93;2.23;;;;;;;;;;4972922;28;20614;-76
2023/06/30 03:14:34;;;;;;;5.67;2.23;;;;;;;;;;4972677;28;20253;-77
2023/06/30 03:17:01;;;;;;;5.90;2.43;;;;;;;;;;4972638;28;20203;-76
2023/06/30 03:19:30;;;;;;;8.77;2.30;;;;;;;;;;4973284;28;20734;-76
2023/06/30 03:21:57;;;;;;;6.80;2.40;;;;;;;;;;4972928;28;20293;-76
2023/06/30 03:24:24;;;;;;;8.70;3.10;;;;;;;;;;4972556;28;20285;-75
2023/06/30 03:26:51;;;;;;;7.13;2.90;;;;;;;;;;4973022;28;20294;-76
2023/06/30 03:29:18;;;;;;;8.40;3.63;;;;;;;;;;4973364;28;20237;-76
2023/06/30 03:31:46;;;;;;;7.07;3.77;;;;;;;;;;4972502;28;20297;-75
2023/06/30 03:34:13;;;;;;;7.10;3.83;;;;;;;;;;4972317;28;20706;-76
2023/06/30 03:36:41;;;;;;;8.60;3.80;;;;;;;;;;4972710;28;20222;-77
2023/06/30 03:39:08;;;;;;;10.13;4.43;;;;;;;;;;4972265;28;20244;-76
2023/06/30 03:41:36;;;;;;;7.37;4.07;;;;;;;;;;4972952;28;20229;-76
2023/06/30 03:44:03;;;;;;;8.27;4.43;;;;;;;;;;4972545;28;20609;-76
2023/06/30 03:46:30;;;;;;;8.00;4.30;;;;;;;;;;4972769;28;20245;-76
2023/06/30 03:48:57;;;;;;;10.57;4.40;;;;;;;;;;4972511;28;20234;-76
2023/06/30 03:51:25;;;;;;;7.80;4.00;;;;;;;;;;4972403;28;20194;-76
2023/06/30 03:53:53;;;;;;;9.23;4.30;;;;;;;;;;4972563;28;20214;-77
2023/06/30 03:56:20;;;;;;;12.93;4.77;;;;;;;;;;4972493;28;20292;-76
2023/06/30 03:58:47;;;;;;;6.70;3.90;;;;;;;;;;4972780;28;20242;-76
2023/06/30 04:01:15;;;;;;;9.23;4.50;;;;;;;;;;4972549;28;20290;-76
2023/06/30 04:03:42;;;;;;;9.53;4.20;;;;;;;;;;4972251;28;20316;-77
2023/06/30 04:06:09;;;;;;;7.30;3.87;;;;;;;;;;4972344;28;20564;-76
2023/06/30 04:08:36;;;;;;;10.17;4.37;;;;;;;;;;4972022;28;20734;-76
2023/06/30 04:11:05;;;;;;;10.33;3.60;;;;;;;;;;4972197;28;20233;-76
2023/06/30 04:13:32;;;;;;;8.60;3.70;;;;;;;;;;4972235;28;20229;-76
2023/06/30 04:16:00;;;;;;;8.43;3.73;;;;;;;;;;4972528;28;20210;-76
2023/06/30 04:18:28;;;;;;;6.70;3.60;;;;;;;;;;4972546;28;20309;-76
2023/06/30 04:20:55;;;;;;;6.53;3.47;;;;;;;;;;4972440;28;20635;-76
2023/06/30 04:23:22;;;;;;;8.70;3.80;;;;;;;;;;4971939;28;20731;-75
2023/06/30 04:25:50;;;;;;;9.63;3.90;;;;;;;;;;4972813;28;20286;-76
2023/06/30 04:28:18;;;;;;;5.80;3.60;;;;;;;;;;4972681;28;20226;-76
2023/06/30 04:30:47;;;;;;;8.23;3.63;;;;;;;;;;4972066;28;20289;-77
2023/06/30 04:33:14;;;;;;;7.23;3.70;;;;;;;;;;4975605;28;20257;-76
2023/06/30 04:35:44;;;;;;;7.63;3.10;;;;;;;;;;4975883;28;20261;-76
2023/06/30 04:38:11;;;;;;;5.17;3.50;;;;;;;;;;4975793;28;20222;-76
2023/06/30 04:40:38;;;;;;;9.37;3.57;;;;;;;;;;4976060;28;20306;-76
2023/06/30 04:43:12;;;;;;;6.97;3.37;;;;;;;;;;4975676;28;20207;-76
2023/06/30 04:45:40;;;;;;;6.10;3.30;;;;;;;;;;4976032;28;20207;-76
2023/06/30 04:48:07;;;;;;;7.47;3.60;;;;;;;;;;4975622;28;20762;-76
2023/06/30 04:50:35;;;;;;;10.03;3.10;;;;;;;;;;4975871;28;20194;-76
2023/06/30 04:53:02;;;;;;;6.77;3.47;;;;;;;;;;4975667;28;20226;-76
2023/06/30 04:55:29;;;;;;;6.60;3.20;;;;;;;;;;4975534;28;20290;-75
2023/06/30 04:57:56;;;;;;;6.77;3.10;;;;;;;;;;4975432;28;20225;-76
2023/06/30 05:00:23;;;;;;;6.33;3.57;;;;;;;;;;4975423;28;20272;-75
2023/06/30 05:02:52;;;;;;;6.20;2.87;;;;;;;;;;4975202;28;20326;-76
2023/06/30 05:05:19;;;;;;;9.97;3.40;;;;;;;;;;4975445;28;20289;-76
2023/06/30 05:07:47;;;;;;;7.17;3.60;;;;;;;;;;4975334;28;20249;-76
2023/06/30 05:10:14;;;;;;;6.77;3.07;;;;;;;;;;4975017;28;20230;-77
2023/06/30 05:12:41;;;;;;;9.50;3.20;;;;;;;;;;4974569;28;20229;-76
2023/06/30 05:15:08;;;;;;;4.90;2.80;;;;;;;;;;4975024;28;20289;-75
2023/06/30 05:17:36;;;;;;;8.30;3.57;;;;;;;;;;4974321;28;20203;-76
2023/06/30 05:20:07;;;;;;;6.93;3.10;;;;;;;;;;4974885;28;20326;-76
2023/06/30 05:22:35;;;;;;;8.40;3.30;;;;;;;;;;4974619;28;20202;-76
2023/06/30 05:25:02;;;;;;;7.40;3.30;;;;;;;;;;4975097;28;20289;-76
2023/06/30 05:27:29;;;;;;;7.30;3.47;;;;;;;;;;4974012;28;20601;-75
2023/06/30 05:29:56;;;;;;;9.43;3.13;;;;;;;;;;4973452;28;20237;-77
2023/06/30 05:32:23;;;;;;;7.63;3.10;;;;;;;;;;4955356;28;20290;-76
2023/06/30 05:34:51;;;;;;;5.97;2.80;;;;;;;;;;4957239;28;20290;-76
2023/06/30 05:37:19;;;;;;;5.90;2.80;;;;;;;;;;4966050;28;20592;-77
2023/06/30 05:39:46;;;;;;;5.33;2.30;;;;;;;;;;4974545;28;20258;-76
2023/06/30 05:42:14;;;;;;;5.37;2.70;;;;;;;;;;4973723;28;20199;-76
2023/06/30 05:44:41;;;;;;;6.03;2.60;;;;;;;;;;4974555;28;20659;-76
2023/06/30 05:47:08;;;;;;;6.83;2.40;;;;;;;;;;4971666;28;20771;-76
2023/06/30 05:49:35;;;;;;;4.20;2.37;;;;;;;;;;4963095;28;20211;-77
2023/06/30 05:52:02;;;;;;;6.07;2.40;;;;;;;;;;4955682;28;20227;-75
2023/06/30 05:54:31;;;;;;;5.40;2.43;;;;;;;;;;4954941;28;20234;-75
2023/06/30 05:56:58;;;;;;;7.30;2.37;;;;;;;;;;4955010;28;20648;-78
2023/06/30 05:59:28;;;;;;;3.80;1.93;;;;;;;;;;4954992;28;20646;-78
2023/06/30 06:01:55;;;;;;;4.57;2.00;;;;;;;;;;4954707;28;20629;-78
2023/06/30 06:04:22;;;;;;;5.40;2.20;;;;;;;;;;4954515;28;20583;-79
2023/06/30 06:06:49;;;;;;;5.67;2.23;;;;;;;;;;4955296;28;20207;-78
2023/06/30 06:09:18;;;;;;;6.38;2.10;;;;;;;;;;4955107;28;20298;-78
2023/06/30 06:11:46;;;;;;;7.55;2.05;;;;;;;;;;4954379;28;20254;-78
2023/06/30 06:14:15;;;;;;;9.60;2.20;;;;;;;;;;4954895;28;20302;-79
2023/06/30 06:16:45;;;;;;;5.93;2.13;;;;;;;;;;4971719;28;20202;-79
2023/06/30 06:19:14;;;;;;;5.88;1.90;;;;;;;;;;4960663;28;20235;-78
2023/06/30 06:21:42;;;;;;;3.53;1.70;;;;;;;;;;4955104;28;20207;-78
2023/06/30 06:24:09;;;;;;;5.20;1.70;;;;;;;;;;4954495;28;20203;-78
2023/06/30 06:26:37;;;;;;;4.75;2.10;;;;;;;;;;4954651;28;20297;-78
2023/06/30 06:29:05;;;;;;;5.32;1.70;;;;;;;;;;4954778;28;20725;-78
2023/06/30 06:31:32;;;;;;;4.07;1.40;;;;;;;;;;4954348;28;20291;-78
2023/06/30 06:33:59;;;;;;;4.03;1.50;;;;;;;;;;4954058;28;20290;-77
2023/06/30 06:36:27;;;;;;;3.67;1.40;;;;;;;;;;4954447;28;20195;-78
2023/06/30 06:38:54;;;;;;;3.25;1.38;;;;;;;;;;4965520;28;20309;-77
2023/06/30 06:41:21;;;;;;;4.93;1.60;;;;;;;;;;4973496;28;20234;-78
2023/06/30 06:43:48;;;;;;;4.72;1.55;;;;;;;;;;4973555;28;20659;-77
2023/06/30 06:46:17;;;;;;;4.63;1.70;;;;;;;;;;4973453;28;20688;-76
2023/06/30 06:48:44;;;;;;;3.60;1.42;;;;;;;;;;4973598;28;20226;-78
2023/06/30 06:51:11;;;;;;;3.08;1.20;;;;;;;;;;4973565;28;20293;-79
2023/06/30 06:53:39;;;;;;;4.45;1.40;;;;;;;;;;4972888;28;20201;-77
2023/06/30 06:56:06;;;;;;;2.88;1.33;;;;;;;;;;4973165;28;20202;-79
2023/06/30 06:58:35;;;;;;;3.20;1.23;;;;;;;;;;4972945;28;20285;-78
2023/06/30 07:01:02;;;;;;;5.18;1.35;;;;;;;;;;4973270;28;20194;-77
2023/06/30 07:03:31;;;;;;;4.70;1.30;;;;;;;;;;4972902;28;20617;-76
2023/06/30 07:05:59;;;;;;;3.08;1.10;;;;;;;;;;4973054;28;20293;-77
2023/06/30 07:08:28;;;;;;;4.00;1.10;;;;;;;;;;4972936;28;20199;-78
2023/06/30 07:10:56;;;;;;;4.97;1.48;;;;;;;;;;4973146;28;20199;-76
2023/06/30 07:13:23;;;;;;;4.53;1.02;;;;;;;;;;4973395;28;20209;-77
2023/06/30 07:15:50;;;;;;;4.32;1.27;;;;;;;;;;4983936;28;20292;-77
2023/06/30 07:18:18;;;;;;;3.60;1.20;;;;;;;;;;4992224;28;20221;-77
2023/06/30 07:20:47;;;;;;;5.30;1.30;;;;;;;;;;4992409;28;20261;-78
2023/06/30 07:23:15;;;;;;;4.60;1.10;;;;;;;;;;4992307;28;20293;-77
2023/06/30 07:25:42;;;;;;;4.20;1.15;;;;;;;;;;4992611;28;20225;-77
2023/06/30 07:28:09;;;;;;;3.67;1.00;;;;;;;;;;4992513;28;20682;-77
2023/06/30 07:30:37;;;;;;;2.97;1.10;;;;;;;;;;4992539;28;20726;-78
2023/06/30 07:33:04;;;;;;;3.85;1.10;;;;;;;;;;4992242;28;20197;-78
2023/06/30 07:35:31;;;;;;;2.90;1.20;;;;;;;;;;4992301;28;20678;-77
2023/06/30 07:38:00;;;;;;;3.55;1.17;;;;;;;;;;4992376;28;20579;-77
2023/06/30 07:40:27;;;;;;;3.88;1.30;;;;;;;;;;4992529;28;20320;-78
2023/06/30 07:42:54;;;;;;;3.72;1.40;;;;;;;;;;4992049;28;20292;-77
2023/06/30 07:45:21;;;;;;;4.13;1.17;;;;;;;;;;4991858;28;20289;-78
2023/06/30 07:47:48;;;;;;;4.18;1.05;;;;;;;;;;4992267;28;20229;-77
2023/06/30 07:50:16;;;;;;;3.85;1.05;;;;;;;;;;4992101;28;20201;-77
2023/06/30 07:52:44;;;;;;;2.95;1.20;;;;;;;;;;4991901;28;20289;-78
2023/06/30 07:55:13;;;;;;;3.35;1.17;;;;;;;;;;4992272;28;20288;-77
2023/06/30 07:57:40;;;;;;;2.97;0.90;;;;;;;;;;4992187;28;20197;-77
2023/06/30 08:00:10;;;;;;;4.53;1.25;;;;;;;;;;4991647;28;20764;-78
2023/06/30 08:02:37;;;;;;;5.10;1.17;;;;;;;;;;4991901;28;20240;-78
2023/06/30 08:05:05;;;;;;;3.13;1.10;;;;;;;;;;4992043;28;20288;-74
2023/06/30 08:07:32;;;;;;;2.88;1.10;;;;;;;;;;4996131;28;20586;-77
2023/06/30 08:09:59;;;;;;;2.30;1.10;;;;;;;;;;4996129;28;20204;-78
2023/06/30 08:12:27;;;;;;;4.03;1.10;;;;;;;;;;4996268;28;20284;-78
2023/06/30 08:14:55;;;;;;;2.70;0.95;;;;;;;;;;4995665;28;20232;-77
2023/06/30 08:17:22;;;;;;;4.38;1.10;;;;;;;;;;4995978;28;20229;-77
2023/06/30 08:19:49;;;;;;;3.40;1.05;;;;;;;;;;4995568;28;20836;-78
2023/06/30 08:22:18;;;;;;;5.47;1.40;;;;;;;;;;4995701;28;20260;-78
2023/06/30 08:24:45;;;;;;;2.95;1.05;;;;;;;;;;4996016;28;20205;-76
2023/06/30 08:27:13;;;;;;;3.13;1.42;;;;;;;;;;4996412;28;20195;-78
2023/06/30 08:29:42;;;;;;;3.53;1.10;;;;;;;;;;4995240;28;20248;-77
2023/06/30 08:32:09;;;;;;;3.00;1.10;;;;;;;;;;4995378;28;20288;-76
2023/06/30 08:34:38;;;;;;;2.85;1.20;;;;;;;;;;4995418;28;20198;-76
2023/06/30 08:37:05;;;;;;;3.28;1.35;;;;;;;;;;4995501;28;20720;-77
2023/06/30 08:39:32;;;;;;;1.83;1.10;;;;;;;;;;4995429;28;20222;-77
2023/06/30 08:42:01;;;;;;;4.65;1.27;;;;;;;;;;4995514;28;20301;-76
2023/06/30 08:44:28;;;;;;;3.13;1.05;;;;;;;;;;4995428;28;20293;-77
2023/06/30 08:46:58;;;;;;;5.40;1.30;;;;;;;;;;4995207;28;20198;-77
2023/06/30 08:49:26;;;;;;;2.38;1.00;;;;;;;;;;4995009;28;20652;-77
2023/06/30 08:51:56;;;;;;;3.90;1.42;;;;;;;;;;4995291;28;20687;-78
2023/06/30 08:54:23;;;;;;;2.65;1.05;;;;;;;;;;4995162;28;20205;-77
2023/06/30 08:56:50;;;;;;;4.97;1.20;;;;;;;;;;4995212;28;20613;-78
2023/06/30 08:59:18;;;;;;;4.20;1.30;;;;;;;;;;4995081;28;20293;-77
2023/06/30 09:01:46;;;;;;;2.85;1.15;;;;;;;;;;4994779;28;20753;-77
2023/06/30 09:04:14;;;;;;;2.95;1.20;;;;;;;;;;4994838;28;20206;-77
2023/06/30 09:06:44;;;;;;;3.60;1.13;;;;;;;;;;4995177;28;20671;-77
2023/06/30 09:09:12;;;;;;;3.88;1.17;;;;;;;;;;4994927;28;20293;-77
2023/06/30 09:11:40;;;;;;;3.50;1.40;;;;;;;;;;4994937;28;20208;-78
2023/06/30 09:14:08;;;;;;;2.65;1.20;;;;;;;;;;4994748;28;20297;-78
2023/06/30 09:16:36;;;;;;;3.13;1.23;;;;;;;;;;4994378;28;20317;-77
2023/06/30 09:19:03;;;;;;;3.08;1.38;;;;;;;;;;4994663;28;20197;-78
2023/06/30 09:21:32;;;;;;;4.20;1.20;;;;;;;;;;4995000;28;20252;-78
2023/06/30 09:23:59;;;;;;;2.38;1.20;;;;;;;;;;4994597;28;20738;-78
2023/06/30 09:26:30;;;;;;;2.80;1.27;;;;;;;;;;4994664;28;20636;-78
2023/06/30 09:28:57;;;;;;;3.00;1.30;;;;;;;;;;4994214;28;20201;-77
2023/06/30 09:31:31;;;;;;;4.20;1.45;;;;;;;;;;4994694;28;20739;-78
2023/06/30 09:34:14;;;;;;;3.10;1.25;;;;;;;;;;4994369;28;20291;-78
2023/06/30 09:36:48;;;;;;;2.35;1.20;;;;;;;;;;4992951;28;20293;-77
2023/06/30 09:39:16;;;;;;;3.55;1.10;;;;;;;;;;4994531;28;20288;-77
2023/06/30 09:41:43;;;;;;;4.20;1.60;;;;;;;;;;4994075;28;20432;-78
2023/06/30 09:44:11;;;;;;;4.70;1.38;;;;;;;;;;4994658;28;20194;-78
2023/06/30 09:46:45;;;;;;;3.22;1.17;;;;;;;;;;4994209;28;20757;-77
2023/06/30 09:49:23;;;;;;;2.65;1.38;;;;;;;;;;4994355;28;20197;-77
2023/06/30 09:51:51;;;;;;;2.30;1.25;;;;;;;;;;4994346;28;20284;-78
2023/06/30 09:54:19;;;;;;;2.83;1.30;;;;;;;;;;4994180;28;20635;-75
2023/06/30 09:56:46;;;;;;;4.38;1.38;;;;;;;;;;4993960;28;20202;-78
2023/06/30 09:59:14;;;;;;;2.78;1.40;;;;;;;;;;4993758;28;20694;-77
2023/06/30 10:01:41;;;;;;;3.22;1.60;;;;;;;;;;4993921;28;20705;-77
2023/06/30 10:04:08;;;;;;;3.63;1.60;;;;;;;;;;4994197;28;20317;-76
2023/06/30 10:06:37;;;;;;;2.97;1.45;;;;;;;;;;4993911;28;20293;-77
2023/06/30 10:09:07;;;;;;;4.07;1.40;;;;;;;;;;4993934;28;20264;-77
2023/06/30 10:11:34;;;;;;;4.32;1.75;;;;;;;;;;4993453;28;20284;-77
2023/06/30 10:14:02;;;;;;;3.30;1.38;;;;;;;;;;4994003;28;20205;-77
2023/06/30 10:16:29;;;;;;;3.60;1.35;;;;;;;;;;4993978;28;20304;-77
2023/06/30 10:18:57;;;;;;;2.67;1.45;;;;;;;;;;4993810;28;20201;-77
2023/06/30 10:21:24;;;;;;;4.55;1.60;;;;;;;;;;4993603;28;20225;-77
2023/06/30 10:23:52;;;;;;;3.53;1.30;;;;;;;;;;4993387;28;20212;-77
2023/06/30 10:26:21;;;;;;;1.95;1.10;;;;;;;;;;4993587;28;20248;-77
2023/06/30 10:28:49;;;;;;;2.55;1.10;;;;;;;;;;4992787;28;20269;-77
2023/06/30 10:31:16;;;;;;;1.67;1.20;;;;;;;;;;4993523;28;20296;-77
2023/06/30 10:33:44;;;;;;;3.70;1.55;;;;;;;;;;4993443;28;20198;-77
2023/06/30 10:36:11;;;;;;;5.22;1.60;;;;;;;;;;4993344;28;20202;-77
2023/06/30 10:38:40;;;;;;;2.38;1.40;;;;;;;;;;4993831;28;20281;-77
2023/06/30 10:41:14;;;;;;;5.88;1.60;;;;;;;;;;4992975;28;20230;-76
2023/06/30 10:44:00;;;;;;;3.53;1.38;;;;;;;;;;4993243;28;20197;-76
2023/06/30 10:46:42;;;;;;;3.47;1.50;;;;;;;;;;4992960;28;20202;-77
2023/06/30 10:49:09;;;;;;;2.80;1.50;;;;;;;;;;4993251;28;20204;-76
2023/06/30 10:51:48;;;;;;;3.60;1.50;;;;;;;;;;5150600;27;21218;-77
2023/06/30 10:54:22;;;;;;;3.63;1.52;;;;;;;;;;5150194;27;20197;-76
2023/06/30 10:56:50;;;;;;;7.10;1.80;;;;;;;;;;5150247;27;20192;-76
2023/06/30 10:59:19;;;;;;;3.83;1.40;;;;;;;;;;5150642;27;20287;-76
2023/06/30 11:02:01;;;;;;;4.85;1.63;;;;;;;;;;5150368;27;20287;-76
2023/06/30 11:04:37;;;;;;;3.15;1.60;;;;;;;;;;5150159;27;20290;-76
2023/06/30 11:07:07;;;;;;;3.22;1.50;;;;;;;;;;5150285;27;20203;-77
2023/06/30 11:09:52;;;;;;;5.47;1.42;;;;;;;;;;5149877;27;20200;-77
2023/06/30 11:12:20;;;;;;;4.15;2.00;;;;;;;;;;5150377;27;20193;-77
2023/06/30 11:14:51;;;;;;;9.52;1.80;;;;;;;;;;5150269;27;20647;-76
2023/06/30 11:17:19;;;;;;;3.03;1.48;;;;;;;;;;5149906;27;20291;-77
2023/06/30 11:19:56;;;;;;;3.25;1.40;;;;;;;;;;5150041;27;20720;-77
2023/06/30 11:22:26;;;;;;;3.45;1.60;;;;;;;;;;5150587;27;20284;-77
2023/06/30 11:24:53;;;;;;;4.88;1.80;;;;;;;;;;5150106;27;20203;-76
2023/06/30 11:27:21;;;;;;;5.50;1.50;;;;;;;;;;5149815;27;20212;-77
2023/06/30 11:29:50;;;;;;;3.00;1.52;;;;;;;;;;5149579;27;20218;-77
2023/06/30 11:32:17;;;;;;;4.60;1.60;;;;;;;;;;5150082;27;20197;-77
2023/06/30 11:34:44;;;;;;;3.47;1.60;;;;;;;;;;5149797;27;20216;-77
2023/06/30 11:37:11;;;;;;;5.30;1.85;;;;;;;;;;5149427;27;20203;-77
2023/06/30 11:39:40;;;;;;;3.75;2.10;;;;;;;;;;5149718;27;20231;-76
2023/06/30 11:42:07;;;;;;;2.85;1.63;;;;;;;;;;5149672;27;20197;-77
2023/06/30 11:44:37;;;;;;;3.75;1.70;;;;;;;;;;5149332;27;20280;-77
2023/06/30 11:47:05;;;;;;;3.15;1.70;;;;;;;;;;5149676;27;20223;-77
2023/06/30 11:49:36;;;;;;;4.03;1.63;;;;;;;;;;5149626;27;20196;-76
2023/06/30 11:52:04;;;;;;;4.07;1.80;;;;;;;;;;5149243;27;20200;-77
2023/06/30 11:54:31;;;;;;;3.58;1.70;;;;;;;;;;5149593;27;20292;-75
2023/06/30 11:57:00;;;;;;;3.53;1.60;;;;;;;;;;5149066;27;20232;-77
2023/06/30 11:59:27;;;;;;;3.05;1.58;;;;;;;;;;5149203;27;20280;-76
2023/06/30 12:01:55;;;;;;;3.00;1.70;;;;;;;;;;5142213;27;20607;-76
2023/06/30 12:04:33;;;;;;;3.83;1.50;;;;;;;;;;5135382;27;20656;-75
2023/06/30 12:07:02;;;;;;;3.28;1.40;;;;;;;;;;5134891;27;20212;-76
2023/06/30 12:09:29;;;;;;;3.95;1.73;;;;;;;;;;5135479;27;20291;-76
2023/06/30 12:11:57;;;;;;;4.63;1.83;;;;;;;;;;5135478;27;20690;-77
2023/06/30 12:14:26;;;;;;;4.80;1.70;;;;;;;;;;5135435;27;20291;-75
2023/06/30 12:16:53;;;;;;;3.60;1.60;;;;;;;;;;5135252;27;20304;-77
2023/06/30 12:19:27;;;;;;;3.63;1.90;;;;;;;;;;5135017;27;20725;-77
2023/06/30 12:21:55;;;;;;;3.63;1.83;;;;;;;;;;5134707;27;20197;-76
2023/06/30 12:24:22;;;;;;;5.05;1.73;;;;;;;;;;5135189;27;20221;-77
2023/06/30 12:26:51;;;;;;;3.08;1.63;;;;;;;;;;5134863;27;20193;-77
2023/06/30 12:29:18;;;;;;;5.57;1.80;;;;;;;;;;5135118;27;20194;-76
2023/06/30 12:31:47;;;;;;;3.80;1.77;;;;;;;;;;5135240;27;20301;-77
2023/06/30 12:34:14;;;;;;;3.42;1.60;;;;;;;;;;5134715;27;20192;-77
2023/06/30 12:36:42;;;;;;;3.97;1.73;;;;;;;;;;5134449;27;20211;-77
2023/06/30 12:39:09;;;;;;;6.10;2.15;;;;;;;;;;5134731;27;20197;-76
2023/06/30 12:41:36;;;;;;;5.28;1.58;;;;;;;;;;5134587;27;20196;-76
2023/06/30 12:44:04;;;;;;;3.88;1.70;;;;;;;;;;5135094;27;20276;-77
2023/06/30 12:46:31;;;;;;;4.78;1.85;;;;;;;;;;5134680;27;20201;-77
2023/06/30 12:49:00;;;;;;;3.47;1.70;;;;;;;;;;5134644;27;20193;-75
2023/06/30 12:51:27;;;;;;;4.53;1.70;;;;;;;;;;5133784;27;20724;-76
2023/06/30 12:53:54;;;;;;;3.90;1.45;;;;;;;;;;5134460;27;20220;-76
2023/06/30 12:56:21;;;;;;;4.28;1.70;;;;;;;;;;5134412;27;20568;-77
2023/06/30 12:58:48;;;;;;;5.15;1.80;;;;;;;;;;5134439;27;20277;-75
2023/06/30 13:01:15;;;;;;;6.32;1.70;;;;;;;;;;5134188;27;20795;-76
2023/06/30 13:03:43;;;;;;;4.07;1.83;;;;;;;;;;5134531;27;20284;-76
2023/06/30 13:06:11;;;;;;;2.80;1.55;;;;;;;;;;5133923;27;20276;-76
2023/06/30 13:08:38;;;;;;;2.80;1.50;;;;;;;;;;5133935;27;20654;-76
2023/06/30 13:11:06;;;;;;;4.20;1.67;;;;;;;;;;5134175;27;20225;-76
2023/06/30 13:13:33;;;;;;;4.45;1.73;;;;;;;;;;5132915;27;20201;-77
2023/06/30 13:16:00;;;;;;;3.72;1.42;;;;;;;;;;5134282;27;20283;-76
2023/06/30 13:18:28;;;;;;;2.72;1.48;;;;;;;;;;5133963;27;20276;-76
2023/06/30 13:20:55;;;;;;;4.10;1.13;;;;;;;;;;5133745;27;20215;-77
2023/06/30 13:23:23;;;;;;;5.93;1.38;;;;;;;;;;5134221;27;20654;-77
2023/06/30 13:25:50;;;;;;;1.85;1.38;;;;;;;;;;5133840;27;20288;-76
2023/06/30 13:28:18;;;;;;;4.13;1.85;;;;;;;;;;5133769;27;20223;-76
2023/06/30 13:30:45;;;;;;;2.10;1.42;;;;;;;;;;5133597;27;20316;-76
2023/06/30 13:33:12;;;;;;;3.42;1.25;;;;;;;;;;5133209;27;20221;-76
2023/06/30 13:35:39;;;;;;;3.60;1.55;;;;;;;;;;5133636;27;20200;-76
2023/06/30 13:38:09;;;;;;;4.20;1.33;;;;;;;;;;5134083;27;20203;-76
2023/06/30 13:40:38;;;;;;;3.75;1.50;;;;;;;;;;5133425;27;20735;-77
2023/06/30 13:43:05;;;;;;;1.70;1.40;;;;;;;;;;5133217;27;20225;-75
2023/06/30 13:45:32;;;;;;;4.13;1.10;;;;;;;;;;5133608;27;20287;-76
2023/06/30 13:47:59;;;;;;;3.67;1.40;;;;;;;;;;5133294;27;20313;-76
2023/06/30 13:50:27;;;;;;;3.72;1.50;;;;;;;;;;5133049;27;20231;-76
2023/06/30 13:52:55;;;;;;;3.95;1.48;;;;;;;;;;5133383;27;20621;-76
2023/06/30 13:55:22;;;;;;;2.45;1.33;;;;;;;;;;5133264;27;20193;-77
2023/06/30 13:57:50;;;;;;;4.32;1.48;;;;;;;;;;5133547;27;20199;-75
2023/06/30 14:00:18;;;;;;;7.97;1.52;;;;;;;;;;5133183;27;20201;-76
2023/06/30 14:02:45;;;;;;;4.85;1.65;;;;;;;;;;5132839;27;20665;-76
2023/06/30 14:05:12;;;;;;;5.88;1.50;;;;;;;;;;5133066;27;20193;-76
2023/06/30 14:07:39;;;;;;;2.72;1.52;;;;;;;;;;5132750;27;20215;-75
2023/06/30 14:10:07;;;;;;;5.15;1.52;;;;;;;;;;5133087;27;20197;-76
2023/06/30 14:12:35;;;;;;;3.70;1.20;;;;;;;;;;5132674;27;20250;-76
2023/06/30 14:15:03;;;;;;;2.30;1.25;;;;;;;;;;5133058;27;20673;-77
2023/06/30 14:17:31;;;;;;;5.72;1.20;;;;;;;;;;5132910;27;20280;-75
2023/06/30 14:19:58;;;;;;;2.55;1.10;;;;;;;;;;5132955;27;20651;-76
2023/06/30 14:22:25;;;;;;;3.40;1.30;;;;;;;;;;5132681;27;20624;-76
2023/06/30 14:24:52;;;;;;;4.00;1.60;;;;;;;;;;5132467;27;20276;-76
2023/06/30 14:27:19;;;;;;;4.53;1.50;;;;;;;;;;5132850;27;20624;-76
2023/06/30 14:29:46;;;;;;;4.72;1.45;;;;;;;;;;5133123;27;20296;-76
2023/06/30 14:32:15;;;;;;;3.67;1.35;;;;;;;;;;5132335;27;20742;-75
2023/06/30 14:34:42;;;;;;;3.05;1.33;;;;;;;;;;5132450;27;20193;-76
2023/06/30 14:37:10;;;;;;;3.13;1.40;;;;;;;;;;5132414;27;20742;-75
2023/06/30 14:39:37;;;;;;;2.95;1.10;;;;;;;;;;5132601;27;20752;-76
2023/06/30 14:42:04;;;;;;;3.08;1.20;;;;;;;;;;5132557;27;20760;-77
2023/06/30 14:44:31;;;;;;;6.60;1.70;;;;;;;;;;5132529;27;20221;-76
2023/06/30 14:47:00;;;;;;;3.70;1.40;;;;;;;;;;5132132;27;20284;-75
2023/06/30 14:49:28;;;;;;;3.90;1.25;;;;;;;;;;5132452;27;20250;-76